Portada
METAR-TAF:

METAR-TAF

Aeroports :

Schenectady County Airport

Schenectady, Nova York, Estats Units d'Amèrica

latitud: 42-51N, longitud: 073-56W, altitud: 115 m

Observació

L'informe es va fer fa 8 hores i 3 minuts, a les 01:51 UTC
Vent calma
Temperatura -1°C
Humitat 100%
Pressió 1024 hPa
Visibilitat: 16.1 km
Cel ennuvolat a una alçada de 3000 ft
Cel ennuvolat a una alçada de 4100 ft

METAR: KSCH 310151Z 00000KT 10SM BKN030 BKN041 M01/M01 A3025 RMK LAST

Hora: 05:54 (09:54 UTC)


TAF: manca

Observacions i pronòstics meteorològics de més de 4000 aeroports (METAR i TAF).

Les estacions disponibles són els punts grocs i vermells al mapa.

Posi el ratolí al punt desitjat per veure el nom de l'estació.

Feu clic per veure les observacions i els pronòstics meteorològics.

Per canviar el mapa: feu clic els botons verds amb una creu de color negre per apropar; al botó verd amb un guió per allunyar la imatge; o en les fletxes verdes per a mapes adjacents.


METAR-TAF: